Terminal Aerodrome Forecast
Issued by NWS

Home | Current Version | Previous Version | Text Only | Print | Product List | Glossary Off
Versions: 1 2 3 4 5 6 7 8 9 10 11 12 13 14 15 16

000
FTUS43 KICT 192337
TAFCNU
TAF
KCNU 192337Z 2000/2024 12009KT P6SM SCT020 OVC150
     FM200300 19009KT 5SM TSRA SCT010 OVC025CB
      TEMPO 2003/2006 VRB26G35KT 2SM +TSRA OVC008CB
     FM200600 18007KT 3SM TSRA SCT010 OVC025CB
     FM200900 13004KT 6SM -RA OVC008
     FM201400 29013KT P6SM SCT010 OVC015=

USA.gov is the U.S. government's official web portal to all federal, state and local government web resources and services.